sensor_id;sensor_type;location;lat;lon;timestamp;pressure;altitude;pressure_sealevel;temperature;humidity
10348;BME280;5220;43.192;23.284;2022-11-20T00:00:13;96301.69;;;11.84;86.15
10348;BME280;5220;43.192;23.284;2022-11-20T00:02:41;96317.47;;;11.83;86.31
10348;BME280;5220;43.192;23.284;2022-11-20T00:05:08;96277.84;;;11.79;86.24
10348;BME280;5220;43.192;23.284;2022-11-20T00:07:35;96290.88;;;11.79;87.05
10348;BME280;5220;43.192;23.284;2022-11-20T00:10:11;96286.44;;;11.80;87.23
10348;BME280;5220;43.192;23.284;2022-11-20T00:12:38;96277.97;;;11.78;87.12
10348;BME280;5220;43.192;23.284;2022-11-20T00:15:05;96303.03;;;11.69;87.14
10348;BME280;5220;43.192;23.284;2022-11-20T00:17:32;96296.63;;;11.73;87.07
10348;BME280;5220;43.192;23.284;2022-11-20T00:20:11;96277.97;;;11.78;86.53
10348;BME280;5220;43.192;23.284;2022-11-20T00:22:38;96276.56;;;11.74;86.75
10348;BME280;5220;43.192;23.284;2022-11-20T00:25:06;96267.75;;;11.65;86.41
10348;BME280;5220;43.192;23.284;2022-11-20T00:27:32;96290.53;;;11.63;87.11
10348;BME280;5220;43.192;23.284;2022-11-20T00:30:09;96313.28;;;11.61;87.17
10348;BME280;5220;43.192;23.284;2022-11-20T00:32:37;96295.03;;;11.52;86.62
10348;BME280;5220;43.192;23.284;2022-11-20T00:35:04;96355.09;;;11.60;87.61
10348;BME280;5220;43.192;23.284;2022-11-20T00:37:32;96323.31;;;11.26;88.06
10348;BME280;5220;43.192;23.284;2022-11-20T00:39:59;96350.50;;;11.33;89.37
10348;BME280;5220;43.192;23.284;2022-11-20T00:42:26;96315.38;;;11.27;89.35
10348;BME280;5220;43.192;23.284;2022-11-20T00:44:53;96301.03;;;11.33;89.46
10348;BME280;5220;43.192;23.284;2022-11-20T00:47:19;96312.16;;;11.45;88.79
10348;BME280;5220;43.192;23.284;2022-11-20T00:49:46;96288.81;;;11.33;89.36
10348;BME280;5220;43.192;23.284;2022-11-20T00:52:13;96321.63;;;11.46;88.95
10348;BME280;5220;43.192;23.284;2022-11-20T00:54:41;96295.44;;;11.47;88.13
10348;BME280;5220;43.192;23.284;2022-11-20T00:57:08;96292.97;;;11.46;88.72
10348;BME280;5220;43.192;23.284;2022-11-20T01:03:03;96296.66;;;11.53;89.26
10348;BME280;5220;43.192;23.284;2022-11-20T01:05:34;96303.13;;;11.49;88.50
10348;BME280;5220;43.192;23.284;2022-11-20T01:08:01;96318.34;;;11.53;88.19
10348;BME280;5220;43.192;23.284;2022-11-20T01:10:29;96320.94;;;11.53;87.65
10348;BME280;5220;43.192;23.284;2022-11-20T01:12:55;96309.94;;;11.40;87.17
10348;BME280;5220;43.192;23.284;2022-11-20T01:15:36;96310.38;;;11.45;87.47
10348;BME280;5220;43.192;23.284;2022-11-20T01:18:03;96292.41;;;11.42;88.24
10348;BME280;5220;43.192;23.284;2022-11-20T01:20:34;96280.50;;;11.09;89.73
10348;BME280;5220;43.192;23.284;2022-11-20T01:23:00;96303.41;;;11.15;89.43
10348;BME280;5220;43.192;23.284;2022-11-20T01:25:29;96317.94;;;11.18;88.66
10348;BME280;5220;43.192;23.284;2022-11-20T01:27:56;96288.63;;;10.86;89.94
10348;BME280;5220;43.192;23.284;2022-11-20T01:30:22;96293.94;;;11.05;89.99
10348;BME280;5220;43.192;23.284;2022-11-20T01:32:49;96312.56;;;11.10;90.00
10348;BME280;5220;43.192;23.284;2022-11-20T01:35:16;96330.16;;;11.17;88.75
10348;BME280;5220;43.192;23.284;2022-11-20T01:37:43;96328.53;;;11.26;89.09
10348;BME280;5220;43.192;23.284;2022-11-20T01:40:10;96337.50;;;11.12;88.79
10348;BME280;5220;43.192;23.284;2022-11-20T01:42:45;96345.31;;;11.12;89.44
10348;BME280;5220;43.192;23.284;2022-11-20T01:45:59;96381.72;;;11.03;89.31
10348;BME280;5220;43.192;23.284;2022-11-20T01:48:30;96379.19;;;10.92;89.65
10348;BME280;5220;43.192;23.284;2022-11-20T01:51:00;96392.31;;;10.90;90.28
10348;BME280;5220;43.192;23.284;2022-11-20T01:53:31;96391.75;;;11.07;88.90
10348;BME280;5220;43.192;23.284;2022-11-20T01:56:01;96407.53;;;11.15;89.28
10348;BME280;5220;43.192;23.284;2022-11-20T02:02:14;96427.25;;;11.39;87.26
10348;BME280;5220;43.192;23.284;2022-11-20T02:04:41;96432.59;;;11.37;87.27
10348;BME280;5220;43.192;23.284;2022-11-20T02:07:08;96420.97;;;11.41;87.63
10348;BME280;5220;43.192;23.284;2022-11-20T02:09:45;96422.38;;;11.45;88.64
10348;BME280;5220;43.192;23.284;2022-11-20T02:12:12;96431.44;;;11.51;87.19
10348;BME280;5220;43.192;23.284;2022-11-20T02:14:59;96411.28;;;11.53;87.08
10348;BME280;5220;43.192;23.284;2022-11-20T02:17:26;96410.34;;;11.54;86.67
10348;BME280;5220;43.192;23.284;2022-11-20T02:19:53;96410.06;;;11.57;86.47
10348;BME280;5220;43.192;23.284;2022-11-20T02:22:25;96415.84;;;11.60;85.89
10348;BME280;5220;43.192;23.284;2022-11-20T02:24:56;96400.84;;;11.53;86.36
10348;BME280;5220;43.192;23.284;2022-11-20T02:27:25;96421.44;;;11.56;86.37
10348;BME280;5220;43.192;23.284;2022-11-20T02:33:14;96416.38;;;11.54;86.91
10348;BME280;5220;43.192;23.284;2022-11-20T02:35:45;96402.38;;;11.55;86.95
10348;BME280;5220;43.192;23.284;2022-11-20T02:38:13;96428.03;;;11.60;86.25
10348;BME280;5220;43.192;23.284;2022-11-20T02:40:42;96416.78;;;11.59;86.96
10348;BME280;5220;43.192;23.284;2022-11-20T02:43:09;96428.72;;;11.62;86.55
10348;BME280;5220;43.192;23.284;2022-11-20T02:45:36;96408.84;;;11.61;85.83
10348;BME280;5220;43.192;23.284;2022-11-20T02:48:05;96398.97;;;11.55;86.08
10348;BME280;5220;43.192;23.284;2022-11-20T02:50:33;96377.97;;;11.56;86.85
10348;BME280;5220;43.192;23.284;2022-11-20T02:52:59;96383.88;;;11.58;86.67
10348;BME280;5220;43.192;23.284;2022-11-20T02:55:26;96381.13;;;11.50;86.95
10348;BME280;5220;43.192;23.284;2022-11-20T02:57:54;96402.50;;;11.54;85.79
10348;BME280;5220;43.192;23.284;2022-11-20T03:00:21;96407.59;;;11.55;86.33
10348;BME280;5220;43.192;23.284;2022-11-20T03:02:48;96395.50;;;11.45;86.94
10348;BME280;5220;43.192;23.284;2022-11-20T03:05:15;96421.00;;;11.51;86.71
10348;BME280;5220;43.192;23.284;2022-11-20T03:07:43;96423.19;;;11.46;86.93
10348;BME280;5220;43.192;23.284;2022-11-20T03:10:10;96402.91;;;11.49;86.37
10348;BME280;5220;43.192;23.284;2022-11-20T03:12:37;96409.28;;;11.36;87.16
10348;BME280;5220;43.192;23.284;2022-11-20T03:15:06;96388.88;;;11.41;86.26
10348;BME280;5220;43.192;23.284;2022-11-20T03:17:33;96412.59;;;11.38;88.02
10348;BME280;5220;43.192;23.284;2022-11-20T03:20:00;96426.84;;;11.43;88.01
10348;BME280;5220;43.192;23.284;2022-11-20T03:22:28;96414.56;;;11.45;87.50
10348;BME280;5220;43.192;23.284;2022-11-20T03:24:55;96405.75;;;11.46;86.97
10348;BME280;5220;43.192;23.284;2022-11-20T03:27:22;96425.38;;;11.50;88.19
10348;BME280;5220;43.192;23.284;2022-11-20T03:33:06;96435.44;;;11.55;87.43
10348;BME280;5220;43.192;23.284;2022-11-20T03:35:33;96435.03;;;11.59;86.56
10348;BME280;5220;43.192;23.284;2022-11-20T03:37:59;96420.59;;;11.55;86.69
10348;BME280;5220;43.192;23.284;2022-11-20T03:40:26;96427.56;;;11.45;86.74
10348;BME280;5220;43.192;23.284;2022-11-20T03:42:53;96449.53;;;11.52;86.72
10348;BME280;5220;43.192;23.284;2022-11-20T03:45:19;96445.28;;;11.51;86.49
10348;BME280;5220;43.192;23.284;2022-11-20T03:47:46;96482.44;;;11.53;86.68
10348;BME280;5220;43.192;23.284;2022-11-20T03:50:15;96479.91;;;11.42;87.50
10348;BME280;5220;43.192;23.284;2022-11-20T03:52:42;96490.66;;;11.49;87.29
10348;BME280;5220;43.192;23.284;2022-11-20T03:55:08;96486.13;;;11.51;87.28
10348;BME280;5220;43.192;23.284;2022-11-20T03:57:35;96498.31;;;11.50;87.03
10348;BME280;5220;43.192;23.284;2022-11-20T04:00:03;96515.63;;;11.51;86.96
10348;BME280;5220;43.192;23.284;2022-11-20T04:02:30;96517.97;;;11.54;86.85
10348;BME280;5220;43.192;23.284;2022-11-20T04:04:57;96520.31;;;11.57;86.78
10348;BME280;5220;43.192;23.284;2022-11-20T04:07:25;96507.81;;;11.51;87.21
10348;BME280;5220;43.192;23.284;2022-11-20T04:09:55;96507.28;;;11.57;87.62
10348;BME280;5220;43.192;23.284;2022-11-20T04:12:21;96518.38;;;11.59;87.25
10348;BME280;5220;43.192;23.284;2022-11-20T04:18:11;96519.34;;;11.58;87.16
10348;BME280;5220;43.192;23.284;2022-11-20T04:20:38;96508.91;;;11.58;86.50
10348;BME280;5220;43.192;23.284;2022-11-20T04:23:06;96513.19;;;11.59;87.53
10348;BME280;5220;43.192;23.284;2022-11-20T04:25:32;96504.41;;;11.60;87.16
10348;BME280;5220;43.192;23.284;2022-11-20T04:27:59;96507.84;;;11.61;87.43
10348;BME280;5220;43.192;23.284;2022-11-20T04:30:26;96508.91;;;11.58;88.09
10348;BME280;5220;43.192;23.284;2022-11-20T04:32:53;96512.09;;;11.62;87.47
10348;BME280;5220;43.192;23.284;2022-11-20T04:35:19;96506.78;;;11.63;87.08
10348;BME280;5220;43.192;23.284;2022-11-20T04:37:46;96498.94;;;11.63;86.55
10348;BME280;5220;43.192;23.284;2022-11-20T04:40:14;96511.03;;;11.64;86.69
10348;BME280;5220;43.192;23.284;2022-11-20T04:42:41;96528.28;;;11.65;86.87
10348;BME280;5220;43.192;23.284;2022-11-20T04:45:08;96524.59;;;11.68;86.31
10348;BME280;5220;43.192;23.284;2022-11-20T04:47:35;96528.03;;;11.68;87.03
10348;BME280;5220;43.192;23.284;2022-11-20T04:53:24;96532.69;;;11.65;86.15
10348;BME280;5220;43.192;23.284;2022-11-20T04:55:59;96518.84;;;11.64;86.21
10348;BME280;5220;43.192;23.284;2022-11-20T04:58:26;96505.63;;;11.56;86.37
10348;BME280;5220;43.192;23.284;2022-11-20T05:00:52;96509.88;;;11.57;86.85
10348;BME280;5220;43.192;23.284;2022-11-20T05:03:19;96492.44;;;11.48;87.36
10348;BME280;5220;43.192;23.284;2022-11-20T05:05:46;96477.75;;;11.47;86.98
10348;BME280;5220;43.192;23.284;2022-11-20T05:08:12;96480.22;;;11.49;88.11
10348;BME280;5220;43.192;23.284;2022-11-20T05:10:39;96471.59;;;11.48;87.40
10348;BME280;5220;43.192;23.284;2022-11-20T05:13:07;96479.72;;;11.55;87.53
10348;BME280;5220;43.192;23.284;2022-11-20T05:15:34;96489.03;;;11.57;87.36
10348;BME280;5220;43.192;23.284;2022-11-20T05:18:01;96466.25;;;11.50;87.68
10348;BME280;5220;43.192;23.284;2022-11-20T05:20:27;96493.53;;;11.55;87.84
10348;BME280;5220;43.192;23.284;2022-11-20T05:22:56;96495.34;;;11.55;86.62
10348;BME280;5220;43.192;23.284;2022-11-20T05:25:23;96511.50;;;11.58;87.58
10348;BME280;5220;43.192;23.284;2022-11-20T05:27:50;96526.09;;;11.61;87.58
10348;BME280;5220;43.192;23.284;2022-11-20T05:30:18;96539.13;;;11.61;87.91
10348;BME280;5220;43.192;23.284;2022-11-20T05:32:45;96553.78;;;11.62;86.96
10348;BME280;5220;43.192;23.284;2022-11-20T05:35:12;96578.06;;;11.62;87.49
10348;BME280;5220;43.192;23.284;2022-11-20T05:37:39;96565.97;;;11.61;88.04
10348;BME280;5220;43.192;23.284;2022-11-20T05:40:07;96579.72;;;11.63;87.10
10348;BME280;5220;43.192;23.284;2022-11-20T05:42:34;96588.47;;;11.62;86.78
10348;BME280;5220;43.192;23.284;2022-11-20T05:45:02;96581.59;;;11.61;86.58
10348;BME280;5220;43.192;23.284;2022-11-20T05:47:33;96587.66;;;11.62;87.97
10348;BME280;5220;43.192;23.284;2022-11-20T05:50:00;96597.69;;;11.66;87.08
10348;BME280;5220;43.192;23.284;2022-11-20T05:52:28;96600.31;;;11.66;87.67
10348;BME280;5220;43.192;23.284;2022-11-20T05:54:55;96616.78;;;11.67;86.89
10348;BME280;5220;43.192;23.284;2022-11-20T05:57:22;96627.19;;;11.67;87.18
10348;BME280;5220;43.192;23.284;2022-11-20T06:03:10;96628.06;;;11.56;88.33
10348;BME280;5220;43.192;23.284;2022-11-20T06:05:37;96622.47;;;11.61;88.05
10348;BME280;5220;43.192;23.284;2022-11-20T06:08:04;96625.66;;;11.64;87.57
10348;BME280;5220;43.192;23.284;2022-11-20T06:10:30;96606.97;;;11.59;87.88
10348;BME280;5220;43.192;23.284;2022-11-20T06:12:57;96604.09;;;11.62;87.95
10348;BME280;5220;43.192;23.284;2022-11-20T06:15:24;96590.13;;;11.63;87.36
10348;BME280;5220;43.192;23.284;2022-11-20T06:17:52;96594.78;;;11.60;88.36
10348;BME280;5220;43.192;23.284;2022-11-20T06:20:20;96577.09;;;11.63;89.04
10348;BME280;5220;43.192;23.284;2022-11-20T06:22:47;96542.03;;;11.67;87.69
10348;BME280;5220;43.192;23.284;2022-11-20T06:25:14;96542.53;;;11.61;86.97
10348;BME280;5220;43.192;23.284;2022-11-20T06:27:40;96556.38;;;11.62;87.86
10348;BME280;5220;43.192;23.284;2022-11-20T06:33:29;96537.41;;;11.50;87.46
10348;BME280;5220;43.192;23.284;2022-11-20T06:35:58;96552.91;;;11.52;88.25
10348;BME280;5220;43.192;23.284;2022-11-20T06:38:25;96544.63;;;11.47;87.91
10348;BME280;5220;43.192;23.284;2022-11-20T06:40:52;96535.63;;;11.51;87.92
10348;BME280;5220;43.192;23.284;2022-11-20T06:43:19;96532.06;;;11.52;88.39
10348;BME280;5220;43.192;23.284;2022-11-20T06:45:51;96532.63;;;11.55;87.45
10348;BME280;5220;43.192;23.284;2022-11-20T06:48:18;96528.13;;;11.57;86.24
10348;BME280;5220;43.192;23.284;2022-11-20T06:50:45;96507.09;;;11.49;87.92
10348;BME280;5220;43.192;23.284;2022-11-20T06:53:13;96520.56;;;11.54;87.15
10348;BME280;5220;43.192;23.284;2022-11-20T06:55:42;96539.38;;;11.58;87.61
10348;BME280;5220;43.192;23.284;2022-11-20T06:58:09;96502.91;;;11.58;86.94
10348;BME280;5220;43.192;23.284;2022-11-20T07:00:36;96488.22;;;11.57;88.41
10348;BME280;5220;43.192;23.284;2022-11-20T07:03:03;96501.81;;;11.60;88.12
10348;BME280;5220;43.192;23.284;2022-11-20T07:05:30;96506.50;;;11.66;88.51
10348;BME280;5220;43.192;23.284;2022-11-20T07:07:57;96487.31;;;11.67;87.34
10348;BME280;5220;43.192;23.284;2022-11-20T07:10:26;96475.50;;;11.63;88.51
10348;BME280;5220;43.192;23.284;2022-11-20T07:12:53;96493.00;;;11.72;88.01
10348;BME280;5220;43.192;23.284;2022-11-20T07:15:21;96489.97;;;11.77;88.83
10348;BME280;5220;43.192;23.284;2022-11-20T07:17:48;96489.59;;;11.81;88.52
10348;BME280;5220;43.192;23.284;2022-11-20T07:20:15;96476.56;;;11.81;88.39
10348;BME280;5220;43.192;23.284;2022-11-20T07:22:42;96467.66;;;11.84;88.64
10348;BME280;5220;43.192;23.284;2022-11-20T07:25:10;96470.25;;;11.84;88.73
10348;BME280;5220;43.192;23.284;2022-11-20T07:27:38;96455.19;;;11.88;87.83
10348;BME280;5220;43.192;23.284;2022-11-20T07:32:55;96450.66;;;11.90;88.78
10348;BME280;5220;43.192;23.284;2022-11-20T07:35:22;96444.25;;;11.94;88.09
10348;BME280;5220;43.192;23.284;2022-11-20T07:37:49;96434.09;;;12.00;87.03
10348;BME280;5220;43.192;23.284;2022-11-20T07:40:16;96431.78;;;11.97;87.63
10348;BME280;5220;43.192;23.284;2022-11-20T07:42:48;96435.50;;;12.04;87.05
10348;BME280;5220;43.192;23.284;2022-11-20T07:45:16;96419.97;;;12.03;87.30
10348;BME280;5220;43.192;23.284;2022-11-20T07:47:42;96420.69;;;12.05;87.61
10348;BME280;5220;43.192;23.284;2022-11-20T07:50:09;96414.50;;;12.06;87.21
10348;BME280;5220;43.192;23.284;2022-11-20T07:52:36;96419.28;;;12.01;87.93
10348;BME280;5220;43.192;23.284;2022-11-20T07:55:04;96427.78;;;12.03;88.44
10348;BME280;5220;43.192;23.284;2022-11-20T08:00:27;96437.94;;;11.96;88.67
10348;BME280;5220;43.192;23.284;2022-11-20T08:02:54;96447.94;;;11.91;89.43
10348;BME280;5220;43.192;23.284;2022-11-20T08:05:20;96424.78;;;11.98;88.83
10348;BME280;5220;43.192;23.284;2022-11-20T08:07:47;96416.13;;;11.97;88.99
10348;BME280;5220;43.192;23.284;2022-11-20T08:10:15;96446.88;;;12.03;88.78
10348;BME280;5220;43.192;23.284;2022-11-20T08:12:46;96428.34;;;12.06;88.69
10348;BME280;5220;43.192;23.284;2022-11-20T08:15:49;96415.88;;;12.10;88.49
10348;BME280;5220;43.192;23.284;2022-11-20T08:18:17;96411.88;;;12.06;88.86
10348;BME280;5220;43.192;23.284;2022-11-20T08:20:44;96426.69;;;12.05;88.78
10348;BME280;5220;43.192;23.284;2022-11-20T08:23:11;96412.44;;;12.09;89.32
10348;BME280;5220;43.192;23.284;2022-11-20T08:25:38;96413.69;;;12.15;88.14
10348;BME280;5220;43.192;23.284;2022-11-20T08:28:06;96418.34;;;12.11;88.83
10348;BME280;5220;43.192;23.284;2022-11-20T08:30:34;96427.28;;;12.18;88.73
10348;BME280;5220;43.192;23.284;2022-11-20T08:33:04;96432.34;;;12.10;88.89
10348;BME280;5220;43.192;23.284;2022-11-20T08:35:32;96441.00;;;12.11;89.82
10348;BME280;5220;43.192;23.284;2022-11-20T08:37:59;96462.66;;;12.11;88.57
10348;BME280;5220;43.192;23.284;2022-11-20T08:40:26;96462.38;;;11.95;90.14
10348;BME280;5220;43.192;23.284;2022-11-20T08:42:53;96465.66;;;11.97;90.46
10348;BME280;5220;43.192;23.284;2022-11-20T08:45:19;96485.59;;;12.08;90.38
10348;BME280;5220;43.192;23.284;2022-11-20T08:47:46;96486.13;;;12.11;90.67
10348;BME280;5220;43.192;23.284;2022-11-20T08:50:15;96498.63;;;12.08;90.99
10348;BME280;5220;43.192;23.284;2022-11-20T08:52:42;96483.56;;;11.81;91.27
10348;BME280;5220;43.192;23.284;2022-11-20T08:55:09;96439.78;;;11.75;92.47
10348;BME280;5220;43.192;23.284;2022-11-20T08:57:37;96436.00;;;11.89;92.17
10348;BME280;5220;43.192;23.284;2022-11-20T09:03:25;96492.00;;;11.94;93.49
10348;BME280;5220;43.192;23.284;2022-11-20T09:05:58;96482.66;;;11.92;93.92
10348;BME280;5220;43.192;23.284;2022-11-20T09:08:25;96477.19;;;11.95;94.40
10348;BME280;5220;43.192;23.284;2022-11-20T09:10:52;96465.38;;;12.00;93.92
10348;BME280;5220;43.192;23.284;2022-11-20T09:13:19;96455.53;;;12.04;94.11
10348;BME280;5220;43.192;23.284;2022-11-20T09:15:46;96459.38;;;12.09;95.00
10348;BME280;5220;43.192;23.284;2022-11-20T09:18:12;96472.44;;;12.19;94.70
10348;BME280;5220;43.192;23.284;2022-11-20T09:20:46;96473.34;;;12.08;94.99
10348;BME280;5220;43.192;23.284;2022-11-20T09:26:36;96467.63;;;12.05;95.99
10348;BME280;5220;43.192;23.284;2022-11-20T09:32:24;96465.97;;;12.13;95.41
10348;BME280;5220;43.192;23.284;2022-11-20T09:34:51;96417.81;;;12.08;96.03
10348;BME280;5220;43.192;23.284;2022-11-20T09:37:18;96426.03;;;12.13;96.26
10348;BME280;5220;43.192;23.284;2022-11-20T09:42:47;96385.00;;;12.15;95.53
10348;BME280;5220;43.192;23.284;2022-11-20T09:45:23;96392.72;;;12.26;96.10
10348;BME280;5220;43.192;23.284;2022-11-20T09:48:03;96369.66;;;12.21;95.84
10348;BME280;5220;43.192;23.284;2022-11-20T09:50:38;96387.34;;;12.27;96.35
10348;BME280;5220;43.192;23.284;2022-11-20T09:53:12;96389.41;;;12.24;96.44
10348;BME280;5220;43.192;23.284;2022-11-20T09:55:40;96377.88;;;12.36;97.53
10348;BME280;5220;43.192;23.284;2022-11-20T09:58:15;96369.25;;;12.45;97.39
10348;BME280;5220;43.192;23.284;2022-11-20T10:00:42;96361.69;;;12.52;96.55
10348;BME280;5220;43.192;23.284;2022-11-20T10:03:13;96341.34;;;12.55;96.49
10348;BME280;5220;43.192;23.284;2022-11-20T10:05:45;96327.75;;;12.61;96.61
10348;BME280;5220;43.192;23.284;2022-11-20T10:08:16;96313.38;;;12.48;96.62
10348;BME280;5220;43.192;23.284;2022-11-20T10:10:47;96315.81;;;12.59;97.44
10348;BME280;5220;43.192;23.284;2022-11-20T10:13:35;96322.66;;;12.79;97.51
10348;BME280;5220;43.192;23.284;2022-11-20T10:16:15;96321.09;;;12.86;98.10
10348;BME280;5220;43.192;23.284;2022-11-20T10:19:01;96336.66;;;12.87;98.49
10348;BME280;5220;43.192;23.284;2022-11-20T10:21:38;96333.75;;;12.90;98.87
10348;BME280;5220;43.192;23.284;2022-11-20T10:24:34;96348.72;;;12.98;98.77
10348;BME280;5220;43.192;23.284;2022-11-20T10:27:12;96351.56;;;13.05;99.87
10348;BME280;5220;43.192;23.284;2022-11-20T10:29:53;96341.59;;;12.81;100.00
10348;BME280;5220;43.192;23.284;2022-11-20T10:35:51;96355.31;;;12.92;99.97
10348;BME280;5220;43.192;23.284;2022-11-20T10:38:25;96367.13;;;12.97;99.71
10348;BME280;5220;43.192;23.284;2022-11-20T10:40:55;96384.56;;;12.96;99.30
10348;BME280;5220;43.192;23.284;2022-11-20T10:43:45;96371.69;;;12.94;98.62
10348;BME280;5220;43.192;23.284;2022-11-20T10:46:16;96362.72;;;12.97;98.33
10348;BME280;5220;43.192;23.284;2022-11-20T10:48:44;96374.00;;;12.98;98.67
10348;BME280;5220;43.192;23.284;2022-11-20T10:51:18;96371.53;;;12.96;99.17
10348;BME280;5220;43.192;23.284;2022-11-20T10:54:06;96361.72;;;13.08;98.45
10348;BME280;5220;43.192;23.284;2022-11-20T10:56:39;96369.72;;;13.06;98.42
10348;BME280;5220;43.192;23.284;2022-11-20T11:02:20;96347.91;;;12.98;98.05
10348;BME280;5220;43.192;23.284;2022-11-20T11:04:49;96370.28;;;13.10;98.05
10348;BME280;5220;43.192;23.284;2022-11-20T11:07:20;96372.63;;;13.13;98.00
10348;BME280;5220;43.192;23.284;2022-11-20T11:09:56;96364.78;;;13.13;97.90
10348;BME280;5220;43.192;23.284;2022-11-20T11:12:25;96376.44;;;13.18;98.25
10348;BME280;5220;43.192;23.284;2022-11-20T11:14:54;96379.31;;;13.25;97.50
10348;BME280;5220;43.192;23.284;2022-11-20T11:17:26;96367.09;;;13.25;97.55
10348;BME280;5220;43.192;23.284;2022-11-20T11:19:58;96364.59;;;13.24;97.50
10348;BME280;5220;43.192;23.284;2022-11-20T11:22:25;96366.81;;;13.28;96.57
10348;BME280;5220;43.192;23.284;2022-11-20T11:24:54;96371.06;;;13.29;96.16
10348;BME280;5220;43.192;23.284;2022-11-20T11:27:21;96376.28;;;13.29;95.06
10348;BME280;5220;43.192;23.284;2022-11-20T11:33:11;96366.94;;;13.27;95.18
10348;BME280;5220;43.192;23.284;2022-11-20T11:35:44;96364.31;;;13.27;95.18
10348;BME280;5220;43.192;23.284;2022-11-20T11:38:14;96355.53;;;13.28;94.91
10348;BME280;5220;43.192;23.284;2022-11-20T11:40:41;96352.66;;;13.21;95.18
10348;BME280;5220;43.192;23.284;2022-11-20T11:43:18;96356.09;;;13.22;95.29
10348;BME280;5220;43.192;23.284;2022-11-20T11:46:23;96386.88;;;13.28;94.70
10348;BME280;5220;43.192;23.284;2022-11-20T11:49:25;96394.59;;;13.29;94.42
10348;BME280;5220;43.192;23.284;2022-11-20T11:52:02;96413.66;;;13.30;94.31
10348;BME280;5220;43.192;23.284;2022-11-20T11:54:35;96450.97;;;13.22;93.75
10348;BME280;5220;43.192;23.284;2022-11-20T11:57:10;96499.91;;;13.11;94.02
10348;BME280;5220;43.192;23.284;2022-11-20T11:59:46;96543.53;;;12.80;94.98
10348;BME280;5220;43.192;23.284;2022-11-20T12:02:29;96530.84;;;12.47;95.72
10348;BME280;5220;43.192;23.284;2022-11-20T12:05:03;96535.22;;;12.36;96.60
10348;BME280;5220;43.192;23.284;2022-11-20T12:08:03;96556.38;;;12.43;95.94
10348;BME280;5220;43.192;23.284;2022-11-20T12:10:40;96551.31;;;12.42;95.97
10348;BME280;5220;43.192;23.284;2022-11-20T12:13:18;96552.41;;;12.49;95.45
10348;BME280;5220;43.192;23.284;2022-11-20T12:15:47;96542.25;;;12.55;95.66
10348;BME280;5220;43.192;23.284;2022-11-20T12:18:17;96543.81;;;12.58;94.89
10348;BME280;5220;43.192;23.284;2022-11-20T12:24:23;96521.94;;;12.59;96.07
10348;BME280;5220;43.192;23.284;2022-11-20T12:27:06;96523.44;;;12.61;95.75
10348;BME280;5220;43.192;23.284;2022-11-20T12:29:43;96508.22;;;12.57;95.41
